Accueil
METAR-TAF:

METAR-TAF

Aéroports :

Aéroport de Bathurst

Bathurst, Nouveau-Brunswick, Canada

latitude: 47-38N, longitude: 065-45W, altitude: 59 m

Observation

Le bulletin a été fait il y a 30 minutes, à 21:00 UTC
Vent 7 kt de sud/sud-ouest, variant entre sud/sud-est et ouest/sud-ouest
Température 4°C
Humidité 44%
Pression 1013 hPa
Visibilité: 14.5 km
Ciel couvert à une hauteur de 4600 ft

METAR: CZBF 192100Z AUTO 21007KT 150V240 9SM OVC046 04/M07 A2992 RMK SLP137

Heure: 18:30 (21:30 UTC)

Prévision

Le bulletin a été fait il y a 1 heure et 52 minutes, à 19:38 UTC
Prévision valable du 19 à 20 UTC au 20 à 03 UTC
Vent 9 kt de ouest/sud-ouest
Visibilité: 10 km
Ciel couvert à une hauteur de 6000 ft
Evoluant progressivement
du 19 à 22 UTC au 19 à 24 UTC
Vent 10 kt de sud avec des rafales jusqu'à 20 kt

TAF: CZBF 191938Z 1920/2003 24009KT P6SM OVC060 BECMG 1922/1924 18010G20KT RMK FCST BASED ON AUTO OBS. NXT FCST WILL BE ISSUED AT 200845Z

Observations et prévisions météorologiques de plus de 4000 aéroports (messages METAR et TAF).

Les stations disponibles sont représentées par des disques jaunes et rouges sur la carte.

Passer la souris dessus pour voir le nom de la station.

Cliquer dessus pour voir les observations et prévisions météorologiques.

Pour changer de carte: cliquez sur les boutons verts avec une croix noire pour zoomer, sur le bouton vert avec un tiret pour effectuer un zoom arrière, ou sur les flèches vertes pour les cartes adjacentes.


METAR-TAF: